sensor_id;sensor_type;location;lat;lon;timestamp;temperature;humidity
67817;DHT22;54614;47.576;7.524;2022-07-23T00:00:33;26.40;68.50
67817;DHT22;54614;47.576;7.524;2022-07-23T00:02:59;26.40;68.30
67817;DHT22;54614;47.576;7.524;2022-07-23T00:05:25;26.40;68.60
67817;DHT22;54614;47.576;7.524;2022-07-23T00:07:51;26.40;68.10
67817;DHT22;54614;47.576;7.524;2022-07-23T00:10:17;26.40;68.50
67817;DHT22;54614;47.576;7.524;2022-07-23T00:12:43;26.40;68.20
67817;DHT22;54614;47.576;7.524;2022-07-23T00:15:10;26.40;68.10
67817;DHT22;54614;47.576;7.524;2022-07-23T00:17:36;26.50;68.00
67817;DHT22;54614;47.576;7.524;2022-07-23T00:20:02;26.50;68.00
67817;DHT22;54614;47.576;7.524;2022-07-23T00:22:28;26.50;68.00
67817;DHT22;54614;47.576;7.524;2022-07-23T00:24:55;26.50;67.80
67817;DHT22;54614;47.576;7.524;2022-07-23T00:27:22;26.50;68.00
67817;DHT22;54614;47.576;7.524;2022-07-23T00:29:48;26.50;67.90
67817;DHT22;54614;47.576;7.524;2022-07-23T00:32:14;26.50;68.00
67817;DHT22;54614;47.576;7.524;2022-07-23T00:34:40;26.50;67.60
67817;DHT22;54614;47.576;7.524;2022-07-23T00:37:06;26.50;67.80
67817;DHT22;54614;47.576;7.524;2022-07-23T00:39:32;26.50;67.90
67817;DHT22;54614;47.576;7.524;2022-07-23T00:41:58;26.50;67.90
67817;DHT22;54614;47.576;7.524;2022-07-23T00:44:26;26.50;67.90
67817;DHT22;54614;47.576;7.524;2022-07-23T00:46:55;26.50;67.70
67817;DHT22;54614;47.576;7.524;2022-07-23T00:49:27;26.40;68.00
67817;DHT22;54614;47.576;7.524;2022-07-23T00:51:55;26.40;67.60
67817;DHT22;54614;47.576;7.524;2022-07-23T00:54:24;26.50;68.10
67817;DHT22;54614;47.576;7.524;2022-07-23T00:56:52;26.50;67.90
67817;DHT22;54614;47.576;7.524;2022-07-23T00:59:18;26.50;67.90
67817;DHT22;54614;47.576;7.524;2022-07-23T01:01:45;26.50;67.70
67817;DHT22;54614;47.576;7.524;2022-07-23T01:04:13;26.50;67.70
67817;DHT22;54614;47.576;7.524;2022-07-23T01:06:40;26.50;67.90
67817;DHT22;54614;47.576;7.524;2022-07-23T01:09:09;26.50;67.90
67817;DHT22;54614;47.576;7.524;2022-07-23T01:11:36;26.50;68.00
67817;DHT22;54614;47.576;7.524;2022-07-23T01:16:37;26.50;68.20
67817;DHT22;54614;47.576;7.524;2022-07-23T01:19:03;26.50;67.90
67817;DHT22;54614;47.576;7.524;2022-07-23T01:21:35;26.40;68.20
67817;DHT22;54614;47.576;7.524;2022-07-23T01:24:02;26.40;68.40
67817;DHT22;54614;47.576;7.524;2022-07-23T01:26:29;26.40;68.10
67817;DHT22;54614;47.576;7.524;2022-07-23T01:28:55;26.40;68.00
67817;DHT22;54614;47.576;7.524;2022-07-23T01:31:21;26.40;68.00
67817;DHT22;54614;47.576;7.524;2022-07-23T01:33:48;26.40;67.90
67817;DHT22;54614;47.576;7.524;2022-07-23T01:36:14;26.40;68.40
67817;DHT22;54614;47.576;7.524;2022-07-23T01:38:40;26.40;68.10
67817;DHT22;54614;47.576;7.524;2022-07-23T01:41:06;26.50;68.40
67817;DHT22;54614;47.576;7.524;2022-07-23T01:43:32;26.50;68.10
67817;DHT22;54614;47.576;7.524;2022-07-23T01:45:58;26.50;68.00
67817;DHT22;54614;47.576;7.524;2022-07-23T01:48:23;26.50;68.40
67817;DHT22;54614;47.576;7.524;2022-07-23T01:50:49;26.50;68.40
67817;DHT22;54614;47.576;7.524;2022-07-23T01:53:16;26.50;68.20
67817;DHT22;54614;47.576;7.524;2022-07-23T01:55:42;26.50;68.40
67817;DHT22;54614;47.576;7.524;2022-07-23T01:58:08;26.40;68.40
67817;DHT22;54614;47.576;7.524;2022-07-23T02:00:34;26.40;69.00
67817;DHT22;54614;47.576;7.524;2022-07-23T02:03:01;26.50;68.20
67817;DHT22;54614;47.576;7.524;2022-07-23T02:05:27;26.40;68.10
67817;DHT22;54614;47.576;7.524;2022-07-23T02:07:58;26.40;68.60
67817;DHT22;54614;47.576;7.524;2022-07-23T02:10:25;26.40;68.60
67817;DHT22;54614;47.576;7.524;2022-07-23T02:12:51;26.40;68.60
67817;DHT22;54614;47.576;7.524;2022-07-23T02:15:18;26.40;68.60
67817;DHT22;54614;47.576;7.524;2022-07-23T02:17:44;26.50;68.40
67817;DHT22;54614;47.576;7.524;2022-07-23T02:20:11;26.40;68.30
67817;DHT22;54614;47.576;7.524;2022-07-23T02:22:38;26.40;68.30
67817;DHT22;54614;47.576;7.524;2022-07-23T02:25:05;26.40;68.50
67817;DHT22;54614;47.576;7.524;2022-07-23T02:27:32;26.40;68.40
67817;DHT22;54614;47.576;7.524;2022-07-23T02:29:59;26.40;68.30
67817;DHT22;54614;47.576;7.524;2022-07-23T02:32:25;26.40;68.30
67817;DHT22;54614;47.576;7.524;2022-07-23T02:34:52;26.40;68.30
67817;DHT22;54614;47.576;7.524;2022-07-23T02:37:18;26.40;68.30
67817;DHT22;54614;47.576;7.524;2022-07-23T02:39:44;26.40;68.40
67817;DHT22;54614;47.576;7.524;2022-07-23T02:42:10;26.40;68.30
67817;DHT22;54614;47.576;7.524;2022-07-23T02:44:36;26.40;68.50
67817;DHT22;54614;47.576;7.524;2022-07-23T02:47:02;26.40;68.20
67817;DHT22;54614;47.576;7.524;2022-07-23T02:49:28;26.40;68.10
67817;DHT22;54614;47.576;7.524;2022-07-23T02:51:54;26.40;68.20
67817;DHT22;54614;47.576;7.524;2022-07-23T02:54:20;26.40;68.30
67817;DHT22;54614;47.576;7.524;2022-07-23T02:56:46;26.40;68.20
67817;DHT22;54614;47.576;7.524;2022-07-23T02:59:12;26.40;68.40
67817;DHT22;54614;47.576;7.524;2022-07-23T03:01:38;26.40;68.00
67817;DHT22;54614;47.576;7.524;2022-07-23T03:04:04;26.40;68.10
67817;DHT22;54614;47.576;7.524;2022-07-23T03:06:30;26.40;68.50
67817;DHT22;54614;47.576;7.524;2022-07-23T03:08:56;26.40;68.10
67817;DHT22;54614;47.576;7.524;2022-07-23T03:11:21;26.40;68.10
67817;DHT22;54614;47.576;7.524;2022-07-23T03:13:47;26.40;68.40
67817;DHT22;54614;47.576;7.524;2022-07-23T03:16:13;26.40;68.00
67817;DHT22;54614;47.576;7.524;2022-07-23T03:18:39;26.40;68.40
67817;DHT22;54614;47.576;7.524;2022-07-23T03:21:05;26.40;68.10
67817;DHT22;54614;47.576;7.524;2022-07-23T03:23:31;26.40;68.10
67817;DHT22;54614;47.576;7.524;2022-07-23T03:25:56;26.40;68.30
67817;DHT22;54614;47.576;7.524;2022-07-23T03:28:22;26.40;68.30
67817;DHT22;54614;47.576;7.524;2022-07-23T03:30:48;26.40;68.10
67817;DHT22;54614;47.576;7.524;2022-07-23T03:33:15;26.40;68.30
67817;DHT22;54614;47.576;7.524;2022-07-23T03:35:45;26.40;68.40
67817;DHT22;54614;47.576;7.524;2022-07-23T03:38:13;26.40;68.40
67817;DHT22;54614;47.576;7.524;2022-07-23T03:40:39;26.40;68.20
67817;DHT22;54614;47.576;7.524;2022-07-23T03:43:06;26.30;68.30
67817;DHT22;54614;47.576;7.524;2022-07-23T03:45:32;26.40;68.30
67817;DHT22;54614;47.576;7.524;2022-07-23T03:47:58;26.30;68.30
67817;DHT22;54614;47.576;7.524;2022-07-23T03:50:24;26.30;68.30
67817;DHT22;54614;47.576;7.524;2022-07-23T03:52:50;26.30;68.20
67817;DHT22;54614;47.576;7.524;2022-07-23T03:55:16;26.30;68.30
67817;DHT22;54614;47.576;7.524;2022-07-23T03:57:43;26.30;68.40
67817;DHT22;54614;47.576;7.524;2022-07-23T04:00:10;26.30;68.30
67817;DHT22;54614;47.576;7.524;2022-07-23T04:02:37;26.30;68.50
67817;DHT22;54614;47.576;7.524;2022-07-23T04:05:04;26.30;68.40
67817;DHT22;54614;47.576;7.524;2022-07-23T04:07:31;26.30;68.30
67817;DHT22;54614;47.576;7.524;2022-07-23T04:09:57;26.40;68.40
67817;DHT22;54614;47.576;7.524;2022-07-23T04:12:24;26.30;68.30
67817;DHT22;54614;47.576;7.524;2022-07-23T04:14:50;26.30;68.20
67817;DHT22;54614;47.576;7.524;2022-07-23T04:17:16;26.30;68.30
67817;DHT22;54614;47.576;7.524;2022-07-23T04:19:42;26.30;68.20
67817;DHT22;54614;47.576;7.524;2022-07-23T04:22:12;26.30;68.40
67817;DHT22;54614;47.576;7.524;2022-07-23T04:24:38;26.30;68.30
67817;DHT22;54614;47.576;7.524;2022-07-23T04:27:05;26.30;68.30
67817;DHT22;54614;47.576;7.524;2022-07-23T04:29:31;26.30;68.40
67817;DHT22;54614;47.576;7.524;2022-07-23T04:31:57;26.30;68.20
67817;DHT22;54614;47.576;7.524;2022-07-23T04:34:23;26.40;68.40
67817;DHT22;54614;47.576;7.524;2022-07-23T04:36:52;26.30;68.30
67817;DHT22;54614;47.576;7.524;2022-07-23T04:39:19;26.30;68.30
67817;DHT22;54614;47.576;7.524;2022-07-23T04:41:45;26.30;68.40
67817;DHT22;54614;47.576;7.524;2022-07-23T04:44:11;26.30;68.40
67817;DHT22;54614;47.576;7.524;2022-07-23T04:46:36;26.30;68.40
67817;DHT22;54614;47.576;7.524;2022-07-23T04:49:02;26.30;68.30
67817;DHT22;54614;47.576;7.524;2022-07-23T04:51:28;26.30;68.40
67817;DHT22;54614;47.576;7.524;2022-07-23T04:53:55;26.30;68.10
67817;DHT22;54614;47.576;7.524;2022-07-23T04:56:21;26.30;68.20
67817;DHT22;54614;47.576;7.524;2022-07-23T04:58:48;26.30;68.30
67817;DHT22;54614;47.576;7.524;2022-07-23T05:01:13;26.30;68.20
67817;DHT22;54614;47.576;7.524;2022-07-23T05:03:39;26.30;68.20
67817;DHT22;54614;47.576;7.524;2022-07-23T05:06:05;26.30;68.20
67817;DHT22;54614;47.576;7.524;2022-07-23T05:08:31;26.30;68.10
67817;DHT22;54614;47.576;7.524;2022-07-23T05:10:57;26.30;68.00
67817;DHT22;54614;47.576;7.524;2022-07-23T05:13:23;26.30;68.00
67817;DHT22;54614;47.576;7.524;2022-07-23T05:15:49;26.30;68.40
67817;DHT22;54614;47.576;7.524;2022-07-23T05:18:15;26.30;68.00
67817;DHT22;54614;47.576;7.524;2022-07-23T05:20:41;26.30;68.00
67817;DHT22;54614;47.576;7.524;2022-07-23T05:23:07;26.30;68.10
67817;DHT22;54614;47.576;7.524;2022-07-23T05:25:33;26.30;68.80
67817;DHT22;54614;47.576;7.524;2022-07-23T05:27:59;26.30;68.10
67817;DHT22;54614;47.576;7.524;2022-07-23T05:30:25;26.30;68.00
67817;DHT22;54614;47.576;7.524;2022-07-23T05:32:51;26.30;68.00
67817;DHT22;54614;47.576;7.524;2022-07-23T05:35:17;26.30;67.90
67817;DHT22;54614;47.576;7.524;2022-07-23T05:37:43;26.30;68.00
67817;DHT22;54614;47.576;7.524;2022-07-23T05:40:10;26.30;69.60
67817;DHT22;54614;47.576;7.524;2022-07-23T05:42:38;26.20;69.90
67817;DHT22;54614;47.576;7.524;2022-07-23T05:45:06;26.10;70.70
67817;DHT22;54614;47.576;7.524;2022-07-23T05:47:43;26.00;71.20
67817;DHT22;54614;47.576;7.524;2022-07-23T05:50:13;26.00;71.30
67817;DHT22;54614;47.576;7.524;2022-07-23T05:52:39;25.90;71.30
67817;DHT22;54614;47.576;7.524;2022-07-23T05:55:06;25.90;71.60
67817;DHT22;54614;47.576;7.524;2022-07-23T05:57:33;25.90;71.50
67817;DHT22;54614;47.576;7.524;2022-07-23T06:00:00;25.80;71.70
67817;DHT22;54614;47.576;7.524;2022-07-23T06:02:26;25.70;71.60
67817;DHT22;54614;47.576;7.524;2022-07-23T06:04:52;25.70;71.60
67817;DHT22;54614;47.576;7.524;2022-07-23T06:07:18;25.70;72.20
67817;DHT22;54614;47.576;7.524;2022-07-23T06:09:43;25.70;71.90
67817;DHT22;54614;47.576;7.524;2022-07-23T06:12:09;25.70;72.10
67817;DHT22;54614;47.576;7.524;2022-07-23T06:14:35;25.70;72.10
67817;DHT22;54614;47.576;7.524;2022-07-23T06:17:01;25.70;72.30
67817;DHT22;54614;47.576;7.524;2022-07-23T06:19:27;25.60;72.30
67817;DHT22;54614;47.576;7.524;2022-07-23T06:21:53;25.60;72.30
67817;DHT22;54614;47.576;7.524;2022-07-23T06:24:19;25.60;72.60
67817;DHT22;54614;47.576;7.524;2022-07-23T06:26:45;25.60;72.70
67817;DHT22;54614;47.576;7.524;2022-07-23T06:29:11;25.50;72.70
67817;DHT22;54614;47.576;7.524;2022-07-23T06:31:37;25.60;72.40
67817;DHT22;54614;47.576;7.524;2022-07-23T06:34:03;25.50;73.20
67817;DHT22;54614;47.576;7.524;2022-07-23T06:36:29;25.50;73.20
67817;DHT22;54614;47.576;7.524;2022-07-23T06:38:55;25.30;74.00
67817;DHT22;54614;47.576;7.524;2022-07-23T06:41:20;25.30;74.30
67817;DHT22;54614;47.576;7.524;2022-07-23T06:43:48;25.00;75.50
67817;DHT22;54614;47.576;7.524;2022-07-23T06:46:14;24.50;77.60
67817;DHT22;54614;47.576;7.524;2022-07-23T06:48:40;24.50;77.10
67817;DHT22;54614;47.576;7.524;2022-07-23T06:51:06;24.40;78.30
67817;DHT22;54614;47.576;7.524;2022-07-23T06:53:32;23.20;82.30
67817;DHT22;54614;47.576;7.524;2022-07-23T06:55:57;23.40;81.60
67817;DHT22;54614;47.576;7.524;2022-07-23T06:58:23;23.50;82.10
67817;DHT22;54614;47.576;7.524;2022-07-23T07:00:49;23.10;83.30
67817;DHT22;54614;47.576;7.524;2022-07-23T07:03:16;23.50;81.40
67817;DHT22;54614;47.576;7.524;2022-07-23T07:05:43;24.00;79.10
67817;DHT22;54614;47.576;7.524;2022-07-23T07:08:09;24.40;77.80
67817;DHT22;54614;47.576;7.524;2022-07-23T07:10:35;24.60;76.70
67817;DHT22;54614;47.576;7.524;2022-07-23T07:13:01;24.80;75.90
67817;DHT22;54614;47.576;7.524;2022-07-23T07:15:27;25.00;75.60
67817;DHT22;54614;47.576;7.524;2022-07-23T07:17:53;25.10;75.10
67817;DHT22;54614;47.576;7.524;2022-07-23T07:20:19;25.10;74.70
67817;DHT22;54614;47.576;7.524;2022-07-23T07:22:45;25.20;74.60
67817;DHT22;54614;47.576;7.524;2022-07-23T07:25:11;25.30;74.20
67817;DHT22;54614;47.576;7.524;2022-07-23T07:27:37;25.30;73.90
67817;DHT22;54614;47.576;7.524;2022-07-23T07:30:04;25.30;73.80
67817;DHT22;54614;47.576;7.524;2022-07-23T07:32:30;25.40;73.60
67817;DHT22;54614;47.576;7.524;2022-07-23T07:34:58;25.40;73.20
67817;DHT22;54614;47.576;7.524;2022-07-23T07:37:24;25.40;73.30
67817;DHT22;54614;47.576;7.524;2022-07-23T07:39:50;25.50;73.20
67817;DHT22;54614;47.576;7.524;2022-07-23T07:42:15;25.50;73.20
67817;DHT22;54614;47.576;7.524;2022-07-23T07:44:41;25.50;73.10
67817;DHT22;54614;47.576;7.524;2022-07-23T07:47:07;25.50;73.10
67817;DHT22;54614;47.576;7.524;2022-07-23T07:49:33;25.50;73.10
67817;DHT22;54614;47.576;7.524;2022-07-23T07:51:59;25.50;73.60
67817;DHT22;54614;47.576;7.524;2022-07-23T07:54:25;25.50;72.90
67817;DHT22;54614;47.576;7.524;2022-07-23T07:56:51;25.50;72.80
67817;DHT22;54614;47.576;7.524;2022-07-23T07:59:16;25.60;72.60
67817;DHT22;54614;47.576;7.524;2022-07-23T08:01:42;25.60;72.60
67817;DHT22;54614;47.576;7.524;2022-07-23T08:04:08;25.60;72.40
67817;DHT22;54614;47.576;7.524;2022-07-23T08:06:34;25.70;72.30
67817;DHT22;54614;47.576;7.524;2022-07-23T08:09:00;25.70;72.00
67817;DHT22;54614;47.576;7.524;2022-07-23T08:11:26;25.70;72.00
67817;DHT22;54614;47.576;7.524;2022-07-23T08:13:52;25.70;72.20
67817;DHT22;54614;47.576;7.524;2022-07-23T08:16:18;25.70;72.00
67817;DHT22;54614;47.576;7.524;2022-07-23T08:18:43;25.70;71.90
67817;DHT22;54614;47.576;7.524;2022-07-23T08:21:09;25.70;71.80
67817;DHT22;54614;47.576;7.524;2022-07-23T08:23:36;25.70;71.70
67817;DHT22;54614;47.576;7.524;2022-07-23T08:26:02;25.70;71.60
67817;DHT22;54614;47.576;7.524;2022-07-23T08:28:28;25.70;71.60
67817;DHT22;54614;47.576;7.524;2022-07-23T08:30:54;25.70;71.50
67817;DHT22;54614;47.576;7.524;2022-07-23T08:33:22;25.80;71.40
67817;DHT22;54614;47.576;7.524;2022-07-23T08:35:50;25.80;71.30
67817;DHT22;54614;47.576;7.524;2022-07-23T08:38:20;25.80;71.30
67817;DHT22;54614;47.576;7.524;2022-07-23T08:40:52;25.80;71.40
67817;DHT22;54614;47.576;7.524;2022-07-23T08:43:24;25.80;71.30
67817;DHT22;54614;47.576;7.524;2022-07-23T08:45:54;25.80;71.30
67817;DHT22;54614;47.576;7.524;2022-07-23T08:48:24;25.80;71.20
67817;DHT22;54614;47.576;7.524;2022-07-23T08:50:52;25.80;71.20
67817;DHT22;54614;47.576;7.524;2022-07-23T08:53:20;25.80;71.20
67817;DHT22;54614;47.576;7.524;2022-07-23T08:55:49;25.80;71.00
67817;DHT22;54614;47.576;7.524;2022-07-23T08:58:17;25.80;71.10
67817;DHT22;54614;47.576;7.524;2022-07-23T09:00:45;25.80;71.00
67817;DHT22;54614;47.576;7.524;2022-07-23T09:03:25;25.90;76.80
67817;DHT22;54614;47.576;7.524;2022-07-23T09:05:56;25.90;77.90
67817;DHT22;54614;47.576;7.524;2022-07-23T09:08:25;25.90;75.40
67817;DHT22;54614;47.576;7.524;2022-07-23T09:11:02;25.90;75.60
67817;DHT22;54614;47.576;7.524;2022-07-23T09:13:33;25.90;75.00
67817;DHT22;54614;47.576;7.524;2022-07-23T09:18:46;25.90;73.40
67817;DHT22;54614;47.576;7.524;2022-07-23T09:21:30;26.00;72.90
67817;DHT22;54614;47.576;7.524;2022-07-23T09:29:10;26.00;72.00
67817;DHT22;54614;47.576;7.524;2022-07-23T09:32:01;26.00;71.90
67817;DHT22;54614;47.576;7.524;2022-07-23T09:34:32;26.10;71.90
67817;DHT22;54614;47.576;7.524;2022-07-23T09:37:14;26.00;71.70
67817;DHT22;54614;47.576;7.524;2022-07-23T09:39:42;26.00;71.60
67817;DHT22;54614;47.576;7.524;2022-07-23T09:42:20;26.00;71.70
67817;DHT22;54614;47.576;7.524;2022-07-23T09:44:58;26.00;71.80
67817;DHT22;54614;47.576;7.524;2022-07-23T09:47:30;26.00;71.90
67817;DHT22;54614;47.576;7.524;2022-07-23T09:50:05;26.00;71.60
67817;DHT22;54614;47.576;7.524;2022-07-23T09:52:46;26.00;71.70
67817;DHT22;54614;47.576;7.524;2022-07-23T09:55:14;26.00;71.60
67817;DHT22;54614;47.576;7.524;2022-07-23T09:57:45;26.00;71.60
67817;DHT22;54614;47.576;7.524;2022-07-23T10:00:23;26.00;71.50
67817;DHT22;54614;47.576;7.524;2022-07-23T10:02:50;26.00;71.30
67817;DHT22;54614;47.576;7.524;2022-07-23T10:05:17;26.00;71.30
67817;DHT22;54614;47.576;7.524;2022-07-23T10:07:45;26.00;71.40
67817;DHT22;54614;47.576;7.524;2022-07-23T10:10:12;26.00;71.20
67817;DHT22;54614;47.576;7.524;2022-07-23T10:12:39;26.00;71.10
67817;DHT22;54614;47.576;7.524;2022-07-23T10:15:17;26.00;71.10
67817;DHT22;54614;47.576;7.524;2022-07-23T10:17:44;26.00;71.10
67817;DHT22;54614;47.576;7.524;2022-07-23T10:20:10;26.00;71.00
67817;DHT22;54614;47.576;7.524;2022-07-23T10:22:51;26.00;71.00
67817;DHT22;54614;47.576;7.524;2022-07-23T10:25:49;26.00;71.00
67817;DHT22;54614;47.576;7.524;2022-07-23T10:35:07;26.00;70.70
67817;DHT22;54614;47.576;7.524;2022-07-23T10:37:51;26.00;70.70
67817;DHT22;54614;47.576;7.524;2022-07-23T10:40:23;26.00;70.70
67817;DHT22;54614;47.576;7.524;2022-07-23T10:42:51;26.00;70.60
67817;DHT22;54614;47.576;7.524;2022-07-23T10:47:56;26.00;70.50
67817;DHT22;54614;47.576;7.524;2022-07-23T10:50:38;26.10;70.50
67817;DHT22;54614;47.576;7.524;2022-07-23T10:53:10;26.10;70.50
67817;DHT22;54614;47.576;7.524;2022-07-23T10:55:43;26.10;70.50
67817;DHT22;54614;47.576;7.524;2022-07-23T10:59:04;26.10;70.40
67817;DHT22;54614;47.576;7.524;2022-07-23T11:01:40;26.10;70.30
67817;DHT22;54614;47.576;7.524;2022-07-23T11:04:06;26.10;70.20
67817;DHT22;54614;47.576;7.524;2022-07-23T11:09:40;26.10;70.10
67817;DHT22;54614;47.576;7.524;2022-07-23T11:15:01;26.10;70.10
67817;DHT22;54614;47.576;7.524;2022-07-23T11:17:28;26.10;70.10
67817;DHT22;54614;47.576;7.524;2022-07-23T11:20:13;26.10;70.00
67817;DHT22;54614;47.576;7.524;2022-07-23T11:25:12;26.10;69.90
67817;DHT22;54614;47.576;7.524;2022-07-23T11:27:50;26.10;69.90
67817;DHT22;54614;47.576;7.524;2022-07-23T11:35:35;26.10;69.80
67817;DHT22;54614;47.576;7.524;2022-07-23T11:38:16;26.10;69.80
67817;DHT22;54614;47.576;7.524;2022-07-23T11:40:50;26.10;69.80
67817;DHT22;54614;47.576;7.524;2022-07-23T11:43:17;26.10;69.70
67817;DHT22;54614;47.576;7.524;2022-07-23T11:45:46;26.10;69.70
67817;DHT22;54614;47.576;7.524;2022-07-23T11:48:27;26.20;69.80
67817;DHT22;54614;47.576;7.524;2022-07-23T11:50:55;26.10;69.70
67817;DHT22;54614;47.576;7.524;2022-07-23T11:53:27;26.20;69.70
67817;DHT22;54614;47.576;7.524;2022-07-23T11:56:07;26.20;70.30
67817;DHT22;54614;47.576;7.524;2022-07-23T11:58:35;26.20;69.60
67817;DHT22;54614;47.576;7.524;2022-07-23T12:01:02;26.20;69.70
67817;DHT22;54614;47.576;7.524;2022-07-23T12:03:29;26.20;69.60
67817;DHT22;54614;47.576;7.524;2022-07-23T12:05:59;26.20;69.50
67817;DHT22;54614;47.576;7.524;2022-07-23T12:08:26;26.20;69.50
67817;DHT22;54614;47.576;7.524;2022-07-23T12:10:52;26.10;69.40
67817;DHT22;54614;47.576;7.524;2022-07-23T12:13:20;26.20;69.50
67817;DHT22;54614;47.576;7.524;2022-07-23T12:15:53;26.20;69.50
67817;DHT22;54614;47.576;7.524;2022-07-23T12:18:24;26.20;69.60
67817;DHT22;54614;47.576;7.524;2022-07-23T12:20:56;26.20;69.50
67817;DHT22;54614;47.576;7.524;2022-07-23T12:23:25;26.20;69.40
67817;DHT22;54614;47.576;7.524;2022-07-23T12:25:53;26.20;69.40
67817;DHT22;54614;47.576;7.524;2022-07-23T12:28:29;26.20;69.40
67817;DHT22;54614;47.576;7.524;2022-07-23T12:30:58;26.20;69.30
67817;DHT22;54614;47.576;7.524;2022-07-23T12:35:55;26.30;69.40
67817;DHT22;54614;47.576;7.524;2022-07-23T12:38:26;26.20;69.50
67817;DHT22;54614;47.576;7.524;2022-07-23T12:40:58;26.20;69.70
67817;DHT22;54614;47.576;7.524;2022-07-23T12:43:30;26.20;69.70
67817;DHT22;54614;47.576;7.524;2022-07-23T12:48:35;26.30;69.70
67817;DHT22;54614;47.576;7.524;2022-07-23T12:53:52;26.30;69.70
67817;DHT22;54614;47.576;7.524;2022-07-23T12:58:59;26.30;69.70
67817;DHT22;54614;47.576;7.524;2022-07-23T13:01:36;26.30;69.70
67817;DHT22;54614;47.576;7.524;2022-07-23T13:04:09;26.40;69.60
67817;DHT22;54614;47.576;7.524;2022-07-23T13:09:13;26.40;69.30
67817;DHT22;54614;47.576;7.524;2022-07-23T13:11:43;26.50;69.30
67817;DHT22;54614;47.576;7.524;2022-07-23T13:14:11;26.50;69.80
67817;DHT22;54614;47.576;7.524;2022-07-23T13:16:38;26.60;69.20
67817;DHT22;54614;47.576;7.524;2022-07-23T13:19:06;26.60;69.10
67817;DHT22;54614;47.576;7.524;2022-07-23T13:21:32;26.60;69.00
67817;DHT22;54614;47.576;7.524;2022-07-23T13:23:59;26.60;69.00
67817;DHT22;54614;47.576;7.524;2022-07-23T13:26:26;26.60;68.90
67817;DHT22;54614;47.576;7.524;2022-07-23T13:28:52;26.60;68.90
67817;DHT22;54614;47.576;7.524;2022-07-23T13:31:19;26.60;68.80
67817;DHT22;54614;47.576;7.524;2022-07-23T13:33:46;26.60;68.70
67817;DHT22;54614;47.576;7.524;2022-07-23T13:36:12;26.70;68.80
67817;DHT22;54614;47.576;7.524;2022-07-23T13:38:38;26.70;68.80
67817;DHT22;54614;47.576;7.524;2022-07-23T13:41:05;26.70;68.80
67817;DHT22;54614;47.576;7.524;2022-07-23T13:43:31;26.70;68.80
67817;DHT22;54614;47.576;7.524;2022-07-23T13:45:58;26.70;68.70
67817;DHT22;54614;47.576;7.524;2022-07-23T13:48:26;26.70;68.70
67817;DHT22;54614;47.576;7.524;2022-07-23T13:50:52;26.70;68.70
67817;DHT22;54614;47.576;7.524;2022-07-23T13:53:21;26.70;68.50
67817;DHT22;54614;47.576;7.524;2022-07-23T13:55:51;26.70;68.50
67817;DHT22;54614;47.576;7.524;2022-07-23T13:58:18;26.70;68.50
67817;DHT22;54614;47.576;7.524;2022-07-23T14:00:46;26.80;68.60
67817;DHT22;54614;47.576;7.524;2022-07-23T14:03:14;26.80;68.60
67817;DHT22;54614;47.576;7.524;2022-07-23T14:05:41;26.80;68.60
67817;DHT22;54614;47.576;7.524;2022-07-23T14:08:08;26.80;68.50
67817;DHT22;54614;47.576;7.524;2022-07-23T14:10:36;26.80;68.50
67817;DHT22;54614;47.576;7.524;2022-07-23T14:13:02;26.80;68.40
67817;DHT22;54614;47.576;7.524;2022-07-23T14:15:30;26.80;68.40
67817;DHT22;54614;47.576;7.524;2022-07-23T14:17:58;26.80;68.40
67817;DHT22;54614;47.576;7.524;2022-07-23T14:20:25;26.80;68.40
67817;DHT22;54614;47.576;7.524;2022-07-23T14:22:51;26.80;68.40
67817;DHT22;54614;47.576;7.524;2022-07-23T14:25:18;26.90;68.40
67817;DHT22;54614;47.576;7.524;2022-07-23T14:27:44;26.90;68.40
67817;DHT22;54614;47.576;7.524;2022-07-23T14:30:11;26.90;68.40
67817;DHT22;54614;47.576;7.524;2022-07-23T14:32:37;26.90;68.30
67817;DHT22;54614;47.576;7.524;2022-07-23T14:35:05;26.90;68.30
67817;DHT22;54614;47.576;7.524;2022-07-23T14:37:32;26.90;68.20
67817;DHT22;54614;47.576;7.524;2022-07-23T14:39:59;26.90;68.20
67817;DHT22;54614;47.576;7.524;2022-07-23T14:42:25;26.90;68.20
67817;DHT22;54614;47.576;7.524;2022-07-23T14:44:51;26.90;68.20
67817;DHT22;54614;47.576;7.524;2022-07-23T14:47:17;26.90;68.90
67817;DHT22;54614;47.576;7.524;2022-07-23T14:49:43;26.90;68.20
67817;DHT22;54614;47.576;7.524;2022-07-23T14:52:09;26.90;68.90
67817;DHT22;54614;47.576;7.524;2022-07-23T14:54:35;26.90;68.10
67817;DHT22;54614;47.576;7.524;2022-07-23T14:57:02;26.90;68.00
67817;DHT22;54614;47.576;7.524;2022-07-23T14:59:29;26.90;68.10
67817;DHT22;54614;47.576;7.524;2022-07-23T15:01:56;27.00;68.10
67817;DHT22;54614;47.576;7.524;2022-07-23T15:04:23;26.90;68.10
67817;DHT22;54614;47.576;7.524;2022-07-23T15:06:49;27.00;68.10
67817;DHT22;54614;47.576;7.524;2022-07-23T15:09:15;27.00;68.10
67817;DHT22;54614;47.576;7.524;2022-07-23T15:11:41;27.00;68.00
67817;DHT22;54614;47.576;7.524;2022-07-23T15:14:08;27.00;68.00
67817;DHT22;54614;47.576;7.524;2022-07-23T15:16:35;27.00;68.10
67817;DHT22;54614;47.576;7.524;2022-07-23T15:19:01;27.00;68.00
67817;DHT22;54614;47.576;7.524;2022-07-23T15:21:28;27.00;67.90
67817;DHT22;54614;47.576;7.524;2022-07-23T15:23:55;27.00;67.90
67817;DHT22;54614;47.576;7.524;2022-07-23T15:26:25;27.00;67.90
67817;DHT22;54614;47.576;7.524;2022-07-23T15:28:52;27.00;68.00
67817;DHT22;54614;47.576;7.524;2022-07-23T15:31:18;27.00;67.90
67817;DHT22;54614;47.576;7.524;2022-07-23T15:33:44;27.00;67.90
67817;DHT22;54614;47.576;7.524;2022-07-23T15:36:10;27.00;67.80
67817;DHT22;54614;47.576;7.524;2022-07-23T15:38:38;27.10;67.80
67817;DHT22;54614;47.576;7.524;2022-07-23T15:41:04;27.00;67.80
67817;DHT22;54614;47.576;7.524;2022-07-23T15:43:30;27.00;67.80
67817;DHT22;54614;47.576;7.524;2022-07-23T15:45:59;27.10;67.80
67817;DHT22;54614;47.576;7.524;2022-07-23T15:48:25;27.10;67.80
67817;DHT22;54614;47.576;7.524;2022-07-23T15:50:51;27.10;67.70
67817;DHT22;54614;47.576;7.524;2022-07-23T15:53:17;27.20;67.80
67817;DHT22;54614;47.576;7.524;2022-07-23T15:55:45;27.10;67.80
67817;DHT22;54614;47.576;7.524;2022-07-23T15:58:12;27.10;67.70
67817;DHT22;54614;47.576;7.524;2022-07-23T16:00:38;27.10;67.60
67817;DHT22;54614;47.576;7.524;2022-07-23T16:03:04;27.10;67.60
67817;DHT22;54614;47.576;7.524;2022-07-23T16:05:30;27.10;67.60
67817;DHT22;54614;47.576;7.524;2022-07-23T16:07:58;27.10;67.60
67817;DHT22;54614;47.576;7.524;2022-07-23T16:10:28;27.10;67.60
67817;DHT22;54614;47.576;7.524;2022-07-23T16:12:54;27.10;67.50
67817;DHT22;54614;47.576;7.524;2022-07-23T16:15:21;27.20;67.60
67817;DHT22;54614;47.576;7.524;2022-07-23T16:17:47;27.10;67.50
67817;DHT22;54614;47.576;7.524;2022-07-23T16:20:13;27.20;67.50